Pagrindinis puslapis
METAR-TAF:

METAR-TAF

Oro uostai :

Bric della Croce

Turinas, Italija

platuma: 45-02N, ilguma: 007-44E, Aukštis: 709 m

Dabartinis oras

Ataskaita buvo paskelbta 1 valandą ir 4 minutes, ne 01:55 UTC
Vėjas 4 kt iš Šiaurės/Šiaurės Rytų
Temperatūra 3°C
Drėgmė 100%
Slėgis 1021 hPa
Matomumas 10 km arba daugiau
Išsisklaidę debesys ne aukštis 4000 ft

METAR: LIMK 180155Z 03004KT 9999 SCT040 03/03 Q1021 RMK BKN SCT080 VAL FOSCHIA VIS MIN 9999

Laikas: 03:59 (02:59 UTC)


TAF: trūkstamas

Orai ataskaitas ir orų prognozės (METAR, TAF).

turimą stotys yra geltonos ir raudonos taškus žemėlapyje.

Perkelti pele per norėdami pamatyti stoties vardą.

Tada spustelėkite, norėdami matyti oro stebėjimo ir prognozės.

Norėdami pakeisti žemėlapį: spustelėkite ant žalios mygtukų su juodo kryžiaus žemyn,; žalią mygtuką su brūkšneliu, jei norite nutolinti; arba žalių rodyklių gretimoms žemėlapius.


METAR-TAF: